Time;durP1;ratioP1;P1;durP2;ratioP2;P2;SDS_P1;SDS_P2;PMS_P1;PMS_P2;Temp;Humidity;BMP_temperature;BMP_pressure;BME280_temperature;BME280_humidity;BME280_pressure;Samples;Min_cycle;Max_cycle;Signal;HPM_P1;HPM_P2
2023/08/03 00:02:16;;;;;;;2.77;2.57;;;17.40;78.00;;;;;;6227531;28;20241;-86
2023/08/03 00:05:19;;;;;;;2.30;2.20;;;17.30;78.30;;;;;;6231023;28;20242;-86
2023/08/03 00:08:24;;;;;;;2.93;2.70;;;17.20;78.60;;;;;;6224626;28;20238;-84
2023/08/03 00:11:27;;;;;;;2.00;2.00;;;17.20;79.00;;;;;;6227433;28;20756;-86
2023/08/03 00:14:30;;;;;;;2.70;2.60;;;17.20;79.20;;;;;;6231700;28;20297;-85
2023/08/03 00:17:34;;;;;;;3.10;2.50;;;17.10;79.20;;;;;;6230265;28;20247;-84
2023/08/03 00:20:37;;;;;;;2.30;2.30;;;17.00;79.60;;;;;;6229779;28;20234;-85
2023/08/03 00:23:42;;;;;;;2.97;2.40;;;17.00;79.70;;;;;;6238643;28;20234;-83
2023/08/03 00:26:45;;;;;;;2.27;2.20;;;17.00;79.70;;;;;;6225596;28;20364;-83
2023/08/03 00:29:50;;;;;;;2.20;2.20;;;16.90;79.50;;;;;;6207634;28;20739;-82
2023/08/03 00:32:53;;;;;;;2.63;2.53;;;16.90;79.60;;;;;;6220686;28;20255;-83
2023/08/03 00:35:57;;;;;;;2.50;2.30;;;16.80;79.80;;;;;;6214544;28;20235;-85
2023/08/03 00:39:02;;;;;;;2.80;2.77;;;16.80;79.80;;;;;;6224258;28;20513;-85
2023/08/03 00:42:06;;;;;;;2.47;2.37;;;16.60;80.20;;;;;;6200347;28;20306;-83
2023/08/03 00:45:11;;;;;;;2.40;2.33;;;16.70;80.30;;;;;;6233336;28;20487;-85
2023/08/03 00:48:14;;;;;;;2.30;2.30;;;16.60;80.50;;;;;;6230428;28;20230;-84
2023/08/03 00:51:17;;;;;;;2.43;2.43;;;16.60;80.50;;;;;;6225144;28;20720;-85
2023/08/03 00:54:22;;;;;;;2.30;2.30;;;16.60;80.70;;;;;;6224609;28;20929;-84
2023/08/03 00:57:25;;;;;;;2.70;2.50;;;16.60;80.80;;;;;;6218403;28;20237;-84
2023/08/03 01:00:29;;;;;;;2.60;2.60;;;16.50;81.00;;;;;;6230284;28;20337;-85
2023/08/03 01:03:32;;;;;;;2.87;2.77;;;16.50;81.20;;;;;;6221511;28;20249;-83
2023/08/03 01:06:36;;;;;;;2.73;2.63;;;16.50;81.30;;;;;;6222481;28;20847;-84
2023/08/03 01:09:41;;;;;;;2.90;2.80;;;16.50;81.40;;;;;;6229864;28;20250;-81
2023/08/03 01:12:44;;;;;;;2.40;2.40;;;16.50;81.50;;;;;;6223275;28;20239;-84
2023/08/03 01:15:47;;;;;;;3.13;3.03;;;16.50;81.40;;;;;;6222774;28;20349;-85
2023/08/03 01:18:51;;;;;;;2.90;2.70;;;16.50;81.60;;;;;;6225704;28;20246;-83
2023/08/03 01:21:57;;;;;;;2.40;2.30;;;16.50;81.70;;;;;;6230687;28;20856;-84
2023/08/03 01:25:02;;;;;;;2.60;2.60;;;16.50;81.80;;;;;;6237531;28;20238;-83
2023/08/03 01:28:05;;;;;;;2.80;2.80;;;16.50;81.90;;;;;;6221451;28;20239;-84
2023/08/03 01:31:08;;;;;;;3.20;3.10;;;16.50;81.80;;;;;;6226866;28;20235;-87
2023/08/03 01:34:13;;;;;;;3.13;2.93;;;16.50;81.80;;;;;;6217724;28;20245;-85
2023/08/03 01:37:18;;;;;;;2.60;2.50;;;16.60;81.50;;;;;;6223423;28;20231;-85
2023/08/03 01:40:23;;;;;;;3.27;3.07;;;16.60;81.40;;;;;;6220800;28;20615;-83
2023/08/03 01:43:26;;;;;;;2.80;2.70;;;16.60;81.40;;;;;;6224897;28;20234;-84
2023/08/03 01:46:29;;;;;;;3.10;3.00;;;16.50;81.60;;;;;;6226125;28;20231;-85
2023/08/03 01:49:34;;;;;;;2.97;2.87;;;16.50;81.60;;;;;;6232705;28;20231;-85
2023/08/03 01:52:37;;;;;;;2.67;2.63;;;16.50;81.80;;;;;;6222462;28;20226;-86
2023/08/03 01:55:42;;;;;;;3.10;2.93;;;16.40;81.80;;;;;;6212396;28;20388;-87
2023/08/03 01:58:45;;;;;;;3.20;3.00;;;16.50;81.80;;;;;;6220826;28;20323;-83
2023/08/03 02:01:48;;;;;;;3.27;2.97;;;16.40;81.90;;;;;;6225069;28;20245;-86
2023/08/03 02:04:51;;;;;;;3.10;3.00;;;16.40;82.00;;;;;;6213401;28;20854;-86
2023/08/03 02:07:55;;;;;;;2.90;2.80;;;16.40;82.10;;;;;;6220888;28;20263;-86
2023/08/03 02:11:00;;;;;;;3.07;2.83;;;16.40;82.00;;;;;;6222496;28;20231;-85
2023/08/03 02:14:03;;;;;;;3.07;2.93;;;16.50;81.90;;;;;;6229316;28;20236;-84
2023/08/03 02:17:06;;;;;;;3.10;2.90;;;16.50;82.00;;;;;;6221836;28;20255;-85
2023/08/03 02:20:11;;;;;;;3.90;3.10;;;16.50;82.10;;;;;;6246804;28;20239;-83
2023/08/03 02:23:14;;;;;;;3.40;3.20;;;16.50;82.20;;;;;;6231405;28;20756;-82
2023/08/03 02:26:19;;;;;;;3.07;2.97;;;16.50;82.20;;;;;;6222041;28;20281;-86
2023/08/03 02:29:22;;;;;;;3.33;3.20;;;16.50;82.30;;;;;;6221331;28;20630;-84
2023/08/03 02:32:27;;;;;;;2.87;2.80;;;16.50;82.20;;;;;;6225967;28;20234;-84
2023/08/03 02:35:30;;;;;;;3.33;3.23;;;16.50;82.20;;;;;;6231547;28;20261;-84
2023/08/03 02:38:35;;;;;;;3.37;2.90;;;16.40;82.50;;;;;;6238050;28;20238;-85
2023/08/03 02:41:40;;;;;;;3.30;3.10;;;16.40;82.40;;;;;;6240574;28;20235;-86
2023/08/03 02:44:49;;;;;;;3.67;3.50;;;16.50;82.50;;;;;;6219800;28;20250;-85
2023/08/03 02:47:52;;;;;;;3.17;3.07;;;16.40;82.70;;;;;;6227723;28;20733;-83
2023/08/03 02:50:55;;;;;;;3.60;3.40;;;16.40;82.80;;;;;;6226098;28;20369;-85
2023/08/03 02:53:59;;;;;;;3.47;3.37;;;16.40;82.70;;;;;;6225375;28;20235;-86
2023/08/03 02:57:04;;;;;;;3.13;3.10;;;16.40;82.90;;;;;;6219509;28;20275;-85
2023/08/03 03:00:08;;;;;;;3.67;3.37;;;16.40;82.90;;;;;;6215509;28;20745;-86
2023/08/03 03:03:11;;;;;;;3.53;3.53;;;16.40;82.90;;;;;;6218444;28;20255;-84
2023/08/03 03:06:15;;;;;;;3.90;3.60;;;16.40;83.10;;;;;;6237721;28;20239;-85
2023/08/03 03:09:18;;;;;;;3.57;3.37;;;16.40;83.00;;;;;;6224040;28;20235;-84
2023/08/03 03:12:22;;;;;;;3.50;3.40;;;16.40;83.10;;;;;;6223125;28;20777;-83
2023/08/03 03:15:25;;;;;;;3.83;3.53;;;16.40;83.00;;;;;;6258880;28;20218;-85
2023/08/03 03:18:29;;;;;;;3.63;3.33;;;16.40;83.00;;;;;;6231287;28;20353;-85
2023/08/03 03:21:32;;;;;;;3.13;3.00;;;16.40;82.80;;;;;;6232557;28;20250;-87
2023/08/03 03:24:35;;;;;;;3.40;3.20;;;16.40;82.80;;;;;;6235202;28;20649;-83
2023/08/03 03:27:39;;;;;;;3.50;3.40;;;16.40;82.70;;;;;;6227000;28;20326;-85
2023/08/03 03:30:43;;;;;;;3.07;2.87;;;16.40;82.70;;;;;;6227092;28;20243;-84
2023/08/03 03:33:46;;;;;;;3.50;3.17;;;16.40;82.60;;;;;;6214781;28;20743;-84
2023/08/03 03:36:50;;;;;;;3.43;3.23;;;16.40;82.60;;;;;;6216423;28;20318;-83
2023/08/03 03:39:53;;;;;;;3.40;3.30;;;16.40;82.30;;;;;;6225170;28;20250;-83
2023/08/03 03:42:58;;;;;;;3.70;3.50;;;16.40;82.40;;;;;;6221119;28;20255;-85
2023/08/03 03:46:02;;;;;;;3.50;3.40;;;16.40;82.30;;;;;;6231305;28;20317;-82
2023/08/03 03:49:05;;;;;;;3.43;3.20;;;16.50;82.20;;;;;;6215030;28;20261;-81
2023/08/03 03:52:10;;;;;;;3.63;3.43;;;16.50;82.10;;;;;;6220998;28;20255;-81
2023/08/03 03:55:13;;;;;;;3.37;3.27;;;16.50;82.10;;;;;;6223524;28;20318;-85
2023/08/03 03:58:17;;;;;;;6.33;3.60;;;16.50;82.00;;;;;;6211039;28;20235;-84
2023/08/03 04:01:21;;;;;;;3.50;3.17;;;16.60;81.70;;;;;;6209393;28;20898;-82
2023/08/03 04:04:24;;;;;;;3.27;3.07;;;16.60;81.60;;;;;;6229870;28;20227;-81
2023/08/03 04:07:27;;;;;;;3.80;3.50;;;16.60;81.60;;;;;;6221744;28;20318;-82
2023/08/03 04:10:30;;;;;;;3.80;3.50;;;16.60;81.50;;;;;;6236962;28;20219;-78
2023/08/03 04:13:36;;;;;;;3.90;3.50;;;16.60;81.20;;;;;;6221933;28;20242;-83
2023/08/03 04:16:39;;;;;;;4.80;3.17;;;16.70;81.20;;;;;;6235851;28;20266;-81
2023/08/03 04:19:42;;;;;;;3.80;3.00;;;16.70;81.10;;;;;;6223430;28;20230;-86
2023/08/03 04:22:45;;;;;;;5.00;3.70;;;16.80;80.50;;;;;;6217058;28;20759;-83
2023/08/03 04:25:49;;;;;;;3.70;3.13;;;16.80;80.10;;;;;;6220070;28;20249;-83
2023/08/03 04:28:53;;;;;;;3.60;3.30;;;16.90;80.20;;;;;;6217268;28;20243;-82
2023/08/03 04:31:56;;;;;;;3.20;2.80;;;16.90;80.00;;;;;;6227487;28;20325;-82
2023/08/03 04:35:00;;;;;;;6.07;3.40;;;16.90;79.30;;;;;;6231308;28;20704;-79
2023/08/03 04:38:03;;;;;;;4.07;3.63;;;16.90;79.40;;;;;;6216731;28;20247;-81
2023/08/03 04:41:06;;;;;;;5.93;3.00;;;17.00;79.40;;;;;;6229206;28;20514;-84
2023/08/03 04:44:10;;;;;;;3.70;2.90;;;17.00;79.00;;;;;;6221872;28;20317;-85
2023/08/03 04:47:13;;;;;;;5.10;2.90;;;17.00;78.60;;;;;;6226015;28;20732;-83
2023/08/03 04:50:19;;;;;;;6.57;3.50;;;17.10;78.50;;;;;;6219467;28;20246;-82
2023/08/03 04:53:22;;;;;;;6.27;3.30;;;17.20;78.20;;;;;;6217102;28;20231;-82
2023/08/03 04:56:25;;;;;;;4.60;3.07;;;17.20;78.00;;;;;;6228019;28;20263;-82
2023/08/03 04:59:30;;;;;;;6.10;3.13;;;17.20;77.70;;;;;;6206272;28;20628;-82
2023/08/03 05:02:33;;;;;;;6.17;3.43;;;17.20;77.70;;;;;;6213563;28;20910;-86
2023/08/03 05:05:36;;;;;;;4.27;3.50;;;17.30;77.70;;;;;;6235551;28;20226;-80
2023/08/03 05:08:39;;;;;;;4.10;2.90;;;17.40;77.30;;;;;;6234197;28;20243;-84
2023/08/03 05:11:43;;;;;;;3.10;2.90;;;17.50;76.90;;;;;;6216162;28;20272;-84
2023/08/03 05:14:48;;;;;;;6.23;3.20;;;17.50;76.60;;;;;;6219879;28;20297;-83
2023/08/03 05:17:51;;;;;;;3.47;3.17;;;17.40;76.40;;;;;;6218766;28;20246;-84
2023/08/03 05:20:54;;;;;;;4.30;2.80;;;17.40;76.60;;;;;;6222674;28;20240;-83
2023/08/03 05:23:57;;;;;;;5.77;3.20;;;17.50;76.20;;;;;;6223046;28;20351;-84
2023/08/03 05:27:00;;;;;;;5.90;3.17;;;17.60;75.90;;;;;;6217222;28;20799;-82
2023/08/03 05:30:09;;;;;;;5.13;3.03;;;17.80;75.10;;;;;;6225711;28;20285;-83
2023/08/03 05:33:12;;;;;;;5.83;3.47;;;17.90;74.70;;;;;;6225069;28;20233;-83
2023/08/03 05:36:15;;;;;;;6.93;3.00;;;18.00;74.40;;;;;;6221481;28;20243;-84
2023/08/03 05:39:19;;;;;;;4.50;2.90;;;18.10;73.70;;;;;;6227645;28;20242;-83
2023/08/03 05:42:22;;;;;;;4.77;3.23;;;18.40;73.10;;;;;;6216875;28;20239;-84
2023/08/03 05:45:38;;;;;;;4.90;3.00;;;18.50;72.50;;;;;;6210756;28;20266;-84
2023/08/03 05:48:42;;;;;;;6.30;3.40;;;18.70;72.80;;;;;;6219375;28;20244;-82
2023/08/03 05:51:45;;;;;;;9.97;3.23;;;19.10;70.60;;;;;;6225679;28;20249;-84
2023/08/03 05:54:50;;;;;;;8.97;3.47;;;19.00;70.50;;;;;;6223531;28;20247;-84
2023/08/03 05:57:53;;;;;;;4.47;2.63;;;18.90;70.50;;;;;;6227324;28;20239;-85
2023/08/03 06:00:59;;;;;;;5.57;2.87;;;18.80;70.70;;;;;;6228880;28;20251;-83
2023/08/03 06:04:03;;;;;;;5.80;3.17;;;19.00;70.60;;;;;;6226424;28;20247;-84
2023/08/03 06:07:06;;;;;;;5.80;3.00;;;19.30;69.00;;;;;;6224685;28;20235;-82
2023/08/03 06:10:11;;;;;;;5.17;2.77;;;19.30;69.30;;;;;;6224813;28;20310;-82
2023/08/03 06:13:16;;;;;;;7.67;2.90;;;19.30;68.60;;;;;;6233247;28;20242;-83
2023/08/03 06:16:23;;;;;;;3.27;2.70;;;19.40;68.40;;;;;;6223318;28;20386;-83
2023/08/03 06:19:26;;;;;;;8.17;2.87;;;19.70;67.70;;;;;;6230507;28;20239;-81
2023/08/03 06:22:29;;;;;;;6.10;2.80;;;19.80;67.10;;;;;;6224692;28;20231;-83
2023/08/03 06:25:33;;;;;;;5.93;2.93;;;20.00;66.80;;;;;;6230149;28;20228;-83
2023/08/03 06:28:36;;;;;;;4.80;2.80;;;20.50;65.60;;;;;;6225545;28;20235;-82
2023/08/03 06:31:41;;;;;;;3.37;3.03;;;20.50;65.50;;;;;;6218469;28;20338;-83
2023/08/03 06:34:45;;;;;;;5.77;2.80;;;20.40;65.30;;;;;;6234034;28;20321;-83
2023/08/03 06:37:48;;;;;;;6.00;2.70;;;20.50;64.70;;;;;;6226349;28;20885;-85
2023/08/03 06:40:51;;;;;;;4.87;2.53;;;20.70;64.50;;;;;;6220880;28;20326;-85
2023/08/03 06:43:55;;;;;;;6.57;2.53;;;21.00;63.70;;;;;;6234014;28;20243;-82
2023/08/03 06:47:00;;;;;;;5.90;2.90;;;20.80;63.50;;;;;;6231113;28;20247;-82
2023/08/03 06:50:04;;;;;;;5.77;2.60;;;20.50;64.00;;;;;;6227291;28;20355;-83
2023/08/03 06:53:07;;;;;;;4.10;2.30;;;20.50;64.10;;;;;;6225011;28;20289;-81
2023/08/03 06:56:10;;;;;;;8.33;2.80;;;20.70;63.60;;;;;;6225245;28;20243;-83
2023/08/03 06:59:20;;;;;;;3.77;2.60;;;20.70;63.70;;;;;;6229636;28;20242;-82
2023/08/03 07:02:25;;;;;;;3.77;2.67;;;20.80;63.80;;;;;;6226203;28;20771;-82
2023/08/03 07:05:29;;;;;;;5.17;2.73;;;21.00;63.20;;;;;;6223342;28;20262;-83
2023/08/03 07:08:32;;;;;;;2.63;2.43;;;20.90;62.80;;;;;;6216369;28;20251;-82
2023/08/03 07:11:35;;;;;;;1.97;1.87;;;20.70;63.00;;;;;;6230920;28;20344;-83
2023/08/03 07:14:38;;;;;;;4.30;3.03;;;20.50;63.30;;;;;;6222041;28;20305;-83
2023/08/03 07:17:43;;;;;;;3.20;2.57;;;20.50;63.50;;;;;;6229769;28;20745;-84
2023/08/03 07:20:46;;;;;;;2.17;2.07;;;20.50;63.50;;;;;;6224162;28;20996;-80
2023/08/03 07:23:49;;;;;;;3.77;2.60;;;20.60;63.30;;;;;;6236445;28;20238;-83
2023/08/03 07:26:52;;;;;;;3.40;2.50;;;20.70;63.00;;;;;;6222694;28;20287;-82
2023/08/03 07:29:56;;;;;;;2.53;2.33;;;20.70;63.10;;;;;;6229320;28;20258;-83
2023/08/03 07:33:00;;;;;;;6.33;2.50;;;20.60;62.70;;;;;;6224285;28;20262;-82
2023/08/03 07:36:04;;;;;;;4.33;2.20;;;20.50;63.30;;;;;;6223587;28;20239;-82
2023/08/03 07:39:07;;;;;;;3.20;2.27;;;20.50;63.50;;;;;;6224794;28;20242;-82
2023/08/03 07:42:10;;;;;;;4.07;2.03;;;20.50;63.30;;;;;;6227647;28;20239;-84
2023/08/03 07:45:13;;;;;;;4.37;2.40;;;20.70;62.40;;;;;;6218028;28;20252;-83
2023/08/03 07:48:18;;;;;;;4.30;2.20;;;20.60;62.70;;;;;;6218195;28;20240;-83
2023/08/03 07:51:21;;;;;;;5.47;2.50;;;20.70;63.00;;;;;;6227405;28;20242;-84
2023/08/03 07:54:27;;;;;;;2.53;2.30;;;20.90;61.60;;;;;;6223012;28;20310;-82
2023/08/03 07:57:30;;;;;;;2.63;2.07;;;20.90;62.10;;;;;;6228667;28;20242;-83
2023/08/03 08:00:33;;;;;;;3.03;2.03;;;21.00;62.00;;;;;;6230455;28;20243;-82
2023/08/03 08:03:39;;;;;;;4.50;1.90;;;21.10;61.80;;;;;;6225278;28;20227;-85
2023/08/03 08:06:42;;;;;;;3.17;2.30;;;21.10;62.50;;;;;;6225593;28;20222;-82
2023/08/03 08:09:45;;;;;;;2.80;2.17;;;21.10;61.40;;;;;;6227557;28;20243;-84
2023/08/03 08:12:48;;;;;;;1.80;1.70;;;21.30;62.20;;;;;;6217738;28;20239;-81
2023/08/03 08:15:52;;;;;;;3.10;1.70;;;21.20;60.70;;;;;;6239459;28;20239;-82
2023/08/03 08:18:56;;;;;;;1.90;1.80;;;21.20;61.30;;;;;;6240474;28;20243;-83
2023/08/03 08:22:00;;;;;;;2.73;1.80;;;21.10;61.40;;;;;;6230079;28;20333;-84
2023/08/03 08:25:17;;;;;;;2.67;2.57;;;21.00;61.30;;;;;;6226620;28;20240;-81
2023/08/03 08:28:21;;;;;;;2.37;2.13;;;21.00;62.00;;;;;;6223807;28;20246;-84
2023/08/03 08:31:24;;;;;;;2.30;1.83;;;21.10;61.40;;;;;;6227943;28;20237;-82
2023/08/03 08:34:31;;;;;;;2.03;1.93;;;21.30;60.90;;;;;;6214896;28;20724;-83
2023/08/03 08:37:34;;;;;;;3.50;2.20;;;21.30;61.10;;;;;;6227110;28;20235;-83
2023/08/03 08:40:38;;;;;;;2.30;2.10;;;21.40;61.30;;;;;;6218888;28;20273;-81
2023/08/03 08:43:42;;;;;;;2.00;1.80;;;21.50;60.50;;;;;;6230039;28;20297;-83
2023/08/03 08:46:45;;;;;;;2.77;2.03;;;21.50;61.60;;;;;;6215975;28;20242;-82
2023/08/03 08:49:50;;;;;;;2.67;2.07;;;21.50;60.60;;;;;;6229041;28;20246;-81
2023/08/03 08:53:15;;;;;;;1.80;1.60;;;21.60;59.00;;;;;;6226878;28;20231;-85
2023/08/03 08:56:18;;;;;;;1.97;1.97;;;21.70;60.50;;;;;;6220704;28;20647;-82
2023/08/03 08:59:26;;;;;;;1.43;1.43;;;21.70;59.20;;;;;;6222799;28;20922;-82
2023/08/03 09:02:32;;;;;;;2.00;2.00;;;21.80;59.50;;;;;;6222494;28;20246;-83
2023/08/03 09:05:39;;;;;;;1.83;1.80;;;21.70;59.90;;;;;;6222927;28;20620;-84
2023/08/03 09:08:50;;;;;;;2.20;2.00;;;21.40;59.70;;;;;;6260198;28;20242;-81
2023/08/03 09:11:55;;;;;;;1.80;1.67;;;21.50;61.10;;;;;;6250853;28;20216;-79
2023/08/03 09:14:59;;;;;;;3.70;1.70;;;21.90;59.40;;;;;;6249172;28;20234;-80
2023/08/03 09:18:04;;;;;;;3.10;1.70;;;21.70;59.10;;;;;;6251951;28;20458;-85
2023/08/03 09:21:13;;;;;;;5.73;3.30;;;21.70;60.00;;;;;;6251862;28;20231;-80
2023/08/03 09:24:19;;;;;;;2.70;2.50;;;21.90;58.90;;;;;;6256366;28;20246;-84
2023/08/03 09:27:25;;;;;;;3.87;2.60;;;21.90;58.40;;;;;;6261941;28;20227;-82
2023/08/03 09:30:50;;;;;;;4.33;2.43;;;22.00;58.30;;;;;;6258951;28;20224;-84
2023/08/03 09:33:58;;;;;;;4.67;2.63;;;22.00;59.00;;;;;;6250024;28;20239;-81
2023/08/03 09:37:03;;;;;;;2.87;1.40;;;21.90;58.80;;;;;;6249082;28;20227;-83
2023/08/03 09:40:10;;;;;;;2.20;2.03;;;21.90;60.00;;;;;;6262074;28;20219;-80
2023/08/03 09:43:14;;;;;;;1.70;1.57;;;21.90;59.50;;;;;;6265048;28;20235;-79
2023/08/03 09:46:21;;;;;;;3.30;1.63;;;21.90;58.80;;;;;;6268187;28;20284;-82
2023/08/03 09:49:26;;;;;;;2.33;1.30;;;21.70;59.10;;;;;;6263084;28;20289;-81
2023/08/03 09:52:33;;;;;;;1.43;1.43;;;21.60;58.20;;;;;;6267390;28;20218;-85
2023/08/03 09:55:49;;;;;;;1.40;1.40;;;21.70;58.70;;;;;;6256594;28;20245;-81
2023/08/03 09:58:58;;;;;;;2.00;1.90;;;21.70;58.40;;;;;;6246987;28;20230;-81
2023/08/03 10:02:03;;;;;;;1.63;1.53;;;21.70;58.30;;;;;;6271215;28;20274;-82
2023/08/03 10:05:14;;;;;;;2.90;1.50;;;21.90;58.60;;;;;;6247282;28;20244;-83
2023/08/03 10:08:32;;;;;;;1.60;1.50;;;22.20;58.30;;;;;;6224729;28;20289;-82
2023/08/03 10:11:39;;;;;;;2.30;1.73;;;22.50;58.30;;;;;;6225138;28;20673;-83
2023/08/03 10:14:44;;;;;;;3.57;1.43;;;22.70;57.40;;;;;;6227926;28;20254;-81
2023/08/03 10:17:48;;;;;;;3.40;2.00;;;22.90;56.00;;;;;;6238602;28;20244;-85
2023/08/03 10:20:52;;;;;;;1.80;1.80;;;23.00;56.50;;;;;;6229460;28;20612;-83
2023/08/03 10:24:10;;;;;;;1.70;1.60;;;23.00;56.60;;;;;;6231305;28;20228;-83
2023/08/03 10:27:18;;;;;;;1.63;1.53;;;22.90;57.30;;;;;;6224054;28;20718;-83
2023/08/03 10:31:11;;;;;;;1.80;1.70;;;23.30;56.70;;;;;;6225577;28;20289;-80
2023/08/03 10:34:23;;;;;;;2.43;2.23;;;23.00;57.40;;;;;;6222780;28;20235;-82
2023/08/03 10:37:26;;;;;;;1.77;1.67;;;22.80;58.20;;;;;;6225674;28;20239;-82
2023/08/03 10:40:31;;;;;;;1.90;1.77;;;22.90;58.20;;;;;;6230686;28;20238;-81
2023/08/03 10:43:34;;;;;;;3.80;2.10;;;22.90;57.60;;;;;;6229669;28;20234;-80
2023/08/03 10:46:39;;;;;;;4.23;1.60;;;22.60;57.70;;;;;;6232373;28;20644;-85
2023/08/03 10:49:50;;;;;;;1.83;1.73;;;22.20;58.80;;;;;;6221996;28;20318;-83
2023/08/03 10:52:53;;;;;;;2.00;1.80;;;22.10;59.30;;;;;;6218278;28;20935;-81
2023/08/03 10:56:07;;;;;;;1.67;1.53;;;22.20;59.00;;;;;;6206359;28;20842;-82
2023/08/03 10:59:10;;;;;;;1.60;1.50;;;22.40;58.50;;;;;;6229750;28;20271;-81
2023/08/03 11:02:15;;;;;;;2.10;2.07;;;22.60;58.50;;;;;;6220731;28;20370;-83
2023/08/03 11:05:18;;;;;;;8.27;2.00;;;22.80;58.60;;;;;;6221932;28;20318;-83
2023/08/03 11:08:21;;;;;;;1.37;1.37;;;22.90;57.60;;;;;;6237289;28;20314;-81
2023/08/03 11:11:32;;;;;;;2.23;2.00;;;22.80;56.90;;;;;;6228343;28;20311;-82
2023/08/03 11:14:36;;;;;;;2.17;2.00;;;22.30;57.50;;;;;;6219599;28;20831;-81
2023/08/03 11:17:39;;;;;;;2.17;2.17;;;22.20;58.10;;;;;;6231663;28;20732;-83
2023/08/03 11:20:43;;;;;;;4.10;2.53;;;22.30;57.90;;;;;;6221863;28;20242;-80
2023/08/03 11:23:47;;;;;;;2.80;2.63;;;22.50;57.80;;;;;;6219980;28;20242;-81
2023/08/03 11:26:52;;;;;;;1.90;1.73;;;22.30;58.50;;;;;;6223224;28;20259;-81
2023/08/03 11:29:56;;;;;;;4.67;2.30;;;22.00;60.90;;;;;;6232820;28;20882;-82
2023/08/03 11:33:00;;;;;;;5.77;1.90;;;20.80;64.70;;;;;;6224316;28;20238;-80
2023/08/03 11:36:03;;;;;;;1.53;1.43;;;20.30;68.20;;;;;;6222186;28;20281;-81
2023/08/03 11:39:06;;;;;;;1.70;1.60;;;20.30;68.90;;;;;;6223572;28;20336;-81
2023/08/03 11:42:11;;;;;;;1.47;1.37;;;20.00;68.80;;;;;;6226790;28;20246;-79
2023/08/03 11:45:14;;;;;;;3.60;1.87;;;19.90;68.40;;;;;;6226142;28;20328;-83
2023/08/03 11:48:20;;;;;;;2.30;2.20;;;19.90;69.60;;;;;;6216348;28;20261;-83
2023/08/03 11:51:31;;;;;;;3.47;2.50;;;20.10;69.90;;;;;;6222697;28;20710;-80
2023/08/03 11:54:37;;;;;;;2.90;2.10;;;20.30;69.20;;;;;;6234927;28;20230;-83
2023/08/03 12:01:04;;;;;;;2.27;2.00;;;21.10;66.70;;;;;;6233623;28;20728;-83
2023/08/03 12:04:09;;;;;;;1.50;1.47;;;21.60;62.60;;;;;;6229038;28;20227;-80
2023/08/03 12:07:15;;;;;;;1.70;1.70;;;21.70;62.40;;;;;;6220122;28;20243;-83
2023/08/03 12:10:21;;;;;;;1.77;1.77;;;21.90;61.70;;;;;;6227359;28;20292;-81
2023/08/03 12:13:26;;;;;;;1.50;1.50;;;21.70;61.90;;;;;;6221003;28;20242;-82
2023/08/03 12:16:29;;;;;;;4.10;1.70;;;21.50;61.20;;;;;;6221806;28;20318;-84
2023/08/03 12:19:33;;;;;;;1.63;1.53;;;21.70;60.90;;;;;;6235038;28;20343;-81
2023/08/03 12:22:37;;;;;;;1.37;1.37;;;22.00;59.70;;;;;;6215620;28;20232;-83
2023/08/03 12:25:41;;;;;;;1.80;1.40;;;22.10;58.50;;;;;;6221072;28;20234;-84
2023/08/03 12:28:46;;;;;;;1.63;1.63;;;22.00;58.10;;;;;;6226548;28;20235;-82
2023/08/03 12:31:50;;;;;;;2.30;1.93;;;21.70;58.70;;;;;;6226775;28;20311;-81
2023/08/03 12:34:53;;;;;;;3.37;2.10;;;21.10;62.60;;;;;;6219785;28;20235;-82
2023/08/03 12:37:57;;;;;;;2.10;2.00;;;20.50;66.20;;;;;;6231594;28;20258;-80
2023/08/03 12:41:01;;;;;;;2.97;1.90;;;20.10;66.90;;;;;;6227774;28;20719;-80
2023/08/03 12:44:06;;;;;;;2.00;1.90;;;20.20;68.20;;;;;;6224372;28;20236;-81
2023/08/03 12:47:09;;;;;;;1.80;1.80;;;20.20;68.00;;;;;;6215472;28;20425;-81
2023/08/03 12:50:12;;;;;;;1.53;1.43;;;20.40;67.20;;;;;;6213696;28;20309;-81
2023/08/03 12:53:17;;;;;;;1.50;1.40;;;20.60;66.20;;;;;;6219922;28;20230;-84
2023/08/03 12:56:21;;;;;;;3.40;1.90;;;20.60;63.90;;;;;;6237276;28;20235;-80
2023/08/03 12:59:27;;;;;;;3.17;1.70;;;20.20;65.80;;;;;;6219206;28;20247;-83
2023/08/03 13:02:31;;;;;;;1.60;1.50;;;19.70;67.70;;;;;;6213552;28;20247;-79
2023/08/03 13:05:44;;;;;;;2.10;1.50;;;19.60;67.70;;;;;;6232417;28;20366;-80
2023/08/03 13:08:48;;;;;;;1.63;1.53;;;19.70;67.20;;;;;;6220097;28;20369;-80
2023/08/03 13:11:51;;;;;;;2.97;1.40;;;19.60;67.40;;;;;;6223046;28;20326;-82
2023/08/03 13:14:56;;;;;;;1.53;1.30;;;19.70;65.60;;;;;;6229777;28;20824;-81
2023/08/03 13:17:59;;;;;;;3.43;1.70;;;19.90;65.60;;;;;;6225028;28;20246;-81
2023/08/03 13:21:03;;;;;;;1.90;1.30;;;20.10;65.70;;;;;;6220206;28;20275;-82
2023/08/03 13:24:06;;;;;;;2.17;2.17;;;20.50;64.50;;;;;;6224259;28;20252;-81
2023/08/03 13:27:13;;;;;;;1.40;1.40;;;20.90;63.50;;;;;;6224677;28;20262;-81
2023/08/03 13:30:19;;;;;;;1.50;1.50;;;21.10;61.80;;;;;;6223059;28;20247;-79
2023/08/03 13:33:23;;;;;;;1.60;1.60;;;21.00;61.80;;;;;;6216276;28;20246;-82
2023/08/03 13:36:26;;;;;;;1.60;1.50;;;20.90;61.90;;;;;;6221795;28;20345;-81
2023/08/03 13:39:29;;;;;;;5.00;1.67;;;20.90;61.70;;;;;;6219901;28;20397;-82
2023/08/03 13:42:32;;;;;;;1.83;1.77;;;20.90;61.30;;;;;;6231665;28;20777;-83
2023/08/03 13:45:37;;;;;;;2.67;1.67;;;20.90;61.50;;;;;;6228710;28;20262;-80
2023/08/03 13:48:40;;;;;;;1.70;1.60;;;20.90;61.60;;;;;;6227106;28;20658;-84
2023/08/03 13:51:43;;;;;;;1.70;1.60;;;20.90;61.20;;;;;;6219233;28;20239;-81
2023/08/03 13:54:46;;;;;;;1.63;1.63;;;20.90;61.80;;;;;;6226351;28;20643;-78
2023/08/03 13:57:49;;;;;;;1.73;1.63;;;20.80;61.60;;;;;;6212924;28;20251;-81
2023/08/03 14:01:09;;;;;;;3.80;1.93;;;20.90;61.40;;;;;;6227617;28;20243;-83
2023/08/03 14:04:16;;;;;;;1.50;1.40;;;20.80;62.10;;;;;;6220237;28;20231;-82
2023/08/03 14:07:19;;;;;;;1.87;1.87;;;20.80;61.00;;;;;;6218104;28;20321;-81
2023/08/03 14:10:25;;;;;;;1.80;1.80;;;20.80;61.70;;;;;;6228312;28;20822;-83
2023/08/03 14:13:33;;;;;;;1.80;1.60;;;20.80;62.00;;;;;;6218612;28;20235;-81
2023/08/03 14:16:46;;;;;;;1.50;1.50;;;20.90;61.50;;;;;;6216333;28;20305;-82
2023/08/03 14:19:55;;;;;;;1.87;1.70;;;20.90;61.90;;;;;;6214273;28;20235;-81
2023/08/03 14:22:58;;;;;;;3.07;1.60;;;21.00;61.50;;;;;;6215958;28;20755;-80
2023/08/03 14:26:05;;;;;;;1.70;1.60;;;21.00;61.60;;;;;;6224684;28;20250;-79
2023/08/03 14:29:08;;;;;;;1.60;1.60;;;20.80;63.00;;;;;;6223073;28;20242;-82
2023/08/03 14:32:13;;;;;;;5.60;1.70;;;20.70;64.30;;;;;;6223529;28;20246;-82
2023/08/03 14:35:17;;;;;;;2.97;1.70;;;20.50;66.50;;;;;;6222289;28;20296;-82
2023/08/03 14:38:24;;;;;;;2.23;2.00;;;20.10;68.10;;;;;;6223454;28;20239;-82
2023/08/03 14:41:27;;;;;;;4.23;2.43;;;19.70;69.50;;;;;;6227171;28;20744;-80
2023/08/03 14:44:30;;;;;;;1.93;1.80;;;19.00;72.90;;;;;;6233314;28;20231;-81
2023/08/03 14:47:35;;;;;;;2.20;2.10;;;18.40;75.20;;;;;;6224634;28;20361;-80
2023/08/03 14:50:39;;;;;;;2.50;2.37;;;17.90;78.10;;;;;;6234396;28;20700;-81
2023/08/03 14:53:42;;;;;;;2.30;2.07;;;17.80;79.40;;;;;;6220236;28;20236;-81
2023/08/03 14:56:45;;;;;;;3.90;2.30;;;17.60;80.00;;;;;;6226636;28;20329;-81
2023/08/03 14:59:48;;;;;;;2.40;2.30;;;17.70;80.20;;;;;;6230357;28;20250;-81
2023/08/03 15:02:53;;;;;;;2.30;2.10;;;18.00;80.70;;;;;;6222953;28;20242;-82
2023/08/03 15:05:57;;;;;;;2.03;1.87;;;18.20;79.00;;;;;;6227953;28;20242;-82
2023/08/03 15:09:01;;;;;;;2.97;2.33;;;18.40;80.80;;;;;;6214660;28;20242;-82
2023/08/03 15:12:05;;;;;;;2.00;2.00;;;18.50;79.80;;;;;;6221035;28;20359;-83
2023/08/03 15:15:10;;;;;;;3.07;2.53;;;18.70;79.50;;;;;;6220188;28;20806;-85
2023/08/03 15:18:14;;;;;;;2.60;2.40;;;19.00;79.20;;;;;;6222482;28;20291;-82
2023/08/03 15:21:19;;;;;;;1.60;1.60;;;19.00;78.80;;;;;;6225985;28;20243;-83
2023/08/03 15:24:24;;;;;;;1.80;1.70;;;19.00;79.60;;;;;;6200380;28;20246;-84
2023/08/03 15:27:29;;;;;;;2.83;1.90;;;19.50;78.10;;;;;;6220918;28;20341;-82
2023/08/03 15:30:34;;;;;;;1.60;1.60;;;19.70;75.40;;;;;;6221998;28;20254;-83
2023/08/03 15:34:01;;;;;;;1.60;1.60;;;19.50;76.40;;;;;;6229724;28;20240;-84
2023/08/03 15:37:06;;;;;;;1.90;1.90;;;19.50;75.50;;;;;;6221694;28;20231;-84
2023/08/03 15:40:12;;;;;;;2.77;2.20;;;19.20;76.50;;;;;;6228295;28;20775;-84
2023/08/03 15:43:17;;;;;;;1.73;1.73;;;19.10;76.10;;;;;;6233089;28;20231;-81
2023/08/03 15:46:24;;;;;;;1.80;1.80;;;19.20;75.50;;;;;;6216344;28;20239;-82
2023/08/03 15:49:38;;;;;;;1.70;1.70;;;18.90;76.10;;;;;;6210342;28;20231;-80
2023/08/03 15:52:48;;;;;;;1.70;1.70;;;18.90;77.50;;;;;;6219817;28;20273;-82
2023/08/03 15:56:11;;;;;;;2.10;1.90;;;18.80;77.90;;;;;;6219625;28;20267;-79
2023/08/03 15:59:15;;;;;;;2.20;2.10;;;18.80;78.40;;;;;;6223833;28;20242;-85
2023/08/03 16:02:18;;;;;;;2.07;2.00;;;18.70;78.40;;;;;;6223576;28;20758;-84
2023/08/03 16:05:23;;;;;;;2.00;1.90;;;18.70;77.40;;;;;;6214479;28;20334;-82
2023/08/03 16:08:28;;;;;;;2.23;2.13;;;18.70;77.90;;;;;;6218472;28;20728;-81